sensor_id;sensor_type;location;lat;lon;timestamp;pressure;altitude;pressure_sealevel;temperature;humidity
27729;BME280;15126;42.186;24.340;2023-05-09T00:00:51;99667.53;;;13.50;100.00
27729;BME280;15126;42.186;24.340;2023-05-09T00:03:18;99664.59;;;13.54;100.00
27729;BME280;15126;42.186;24.340;2023-05-09T00:05:45;99666.41;;;13.48;100.00
27729;BME280;15126;42.186;24.340;2023-05-09T00:08:12;99667.94;;;13.49;100.00
27729;BME280;15126;42.186;24.340;2023-05-09T00:10:39;99668.13;;;13.58;100.00
27729;BME280;15126;42.186;24.340;2023-05-09T00:13:07;99674.75;;;13.64;100.00
27729;BME280;15126;42.186;24.340;2023-05-09T00:15:34;99666.59;;;13.69;100.00
27729;BME280;15126;42.186;24.340;2023-05-09T00:18:01;99665.09;;;13.65;100.00
27729;BME280;15126;42.186;24.340;2023-05-09T00:20:28;99674.75;;;13.64;100.00
27729;BME280;15126;42.186;24.340;2023-05-09T00:22:54;99657.94;;;13.64;100.00
27729;BME280;15126;42.186;24.340;2023-05-09T00:25:21;99661.00;;;13.69;100.00
27729;BME280;15126;42.186;24.340;2023-05-09T00:27:48;99673.91;;;13.80;100.00
27729;BME280;15126;42.186;24.340;2023-05-09T00:30:16;99670.38;;;13.63;100.00
27729;BME280;15126;42.186;24.340;2023-05-09T00:32:43;99669.41;;;13.53;100.00
27729;BME280;15126;42.186;24.340;2023-05-09T00:35:10;99670.66;;;13.52;100.00
27729;BME280;15126;42.186;24.340;2023-05-09T00:37:36;99683.25;;;13.60;100.00
27729;BME280;15126;42.186;24.340;2023-05-09T00:40:04;99667.91;;;13.65;100.00
27729;BME280;15126;42.186;24.340;2023-05-09T00:42:32;99661.97;;;13.63;100.00
27729;BME280;15126;42.186;24.340;2023-05-09T00:44:59;99674.56;;;13.71;100.00
27729;BME280;15126;42.186;24.340;2023-05-09T00:47:27;99674.41;;;13.62;100.00
27729;BME280;15126;42.186;24.340;2023-05-09T00:49:55;99673.22;;;13.76;100.00
27729;BME280;15126;42.186;24.340;2023-05-09T00:52:23;99674.00;;;13.76;100.00
27729;BME280;15126;42.186;24.340;2023-05-09T00:54:51;99675.25;;;13.75;100.00
27729;BME280;15126;42.186;24.340;2023-05-09T00:57:18;99680.50;;;13.73;100.00
27729;BME280;15126;42.186;24.340;2023-05-09T00:59:45;99676.81;;;13.76;100.00
27729;BME280;15126;42.186;24.340;2023-05-09T01:02:12;99679.94;;;13.78;100.00
27729;BME280;15126;42.186;24.340;2023-05-09T01:04:40;99690.50;;;13.74;100.00
27729;BME280;15126;42.186;24.340;2023-05-09T01:07:12;99672.38;;;13.62;100.00
27729;BME280;15126;42.186;24.340;2023-05-09T01:09:46;99677.31;;;13.58;100.00
27729;BME280;15126;42.186;24.340;2023-05-09T01:12:25;99690.25;;;13.68;100.00
27729;BME280;15126;42.186;24.340;2023-05-09T01:15:00;99689.78;;;13.70;100.00
27729;BME280;15126;42.186;24.340;2023-05-09T01:17:33;99690.25;;;13.68;100.00
27729;BME280;15126;42.186;24.340;2023-05-09T01:20:11;99679.22;;;13.61;100.00
27729;BME280;15126;42.186;24.340;2023-05-09T01:22:45;99700.66;;;13.68;100.00
27729;BME280;15126;42.186;24.340;2023-05-09T01:25:43;99672.94;;;13.57;100.00
27729;BME280;15126;42.186;24.340;2023-05-09T01:28:18;99690.31;;;13.65;100.00
27729;BME280;15126;42.186;24.340;2023-05-09T01:30:54;99683.50;;;13.66;100.00
27729;BME280;15126;42.186;24.340;2023-05-09T01:33:21;99696.53;;;13.72;100.00
27729;BME280;15126;42.186;24.340;2023-05-09T01:35:54;99694.97;;;13.71;100.00
27729;BME280;15126;42.186;24.340;2023-05-09T01:38:24;99659.63;;;13.61;100.00
27729;BME280;15126;42.186;24.340;2023-05-09T01:40:53;99691.16;;;13.78;100.00
27729;BME280;15126;42.186;24.340;2023-05-09T01:43:21;99687.13;;;13.79;100.00
27729;BME280;15126;42.186;24.340;2023-05-09T01:45:50;99692.19;;;13.84;100.00
27729;BME280;15126;42.186;24.340;2023-05-09T01:48:20;99687.84;;;13.83;100.00
27729;BME280;15126;42.186;24.340;2023-05-09T01:50:51;99693.44;;;13.83;100.00
27729;BME280;15126;42.186;24.340;2023-05-09T01:53:20;99700.94;;;13.86;100.00
27729;BME280;15126;42.186;24.340;2023-05-09T01:55:49;99704.28;;;13.81;100.00
27729;BME280;15126;42.186;24.340;2023-05-09T01:58:17;99695.38;;;13.70;100.00
27729;BME280;15126;42.186;24.340;2023-05-09T02:00:46;99698.91;;;13.74;100.00
27729;BME280;15126;42.186;24.340;2023-05-09T02:03:14;99702.50;;;13.75;100.00
27729;BME280;15126;42.186;24.340;2023-05-09T02:05:43;99708.53;;;13.73;100.00
27729;BME280;15126;42.186;24.340;2023-05-09T02:08:12;99704.69;;;13.67;100.00
27729;BME280;15126;42.186;24.340;2023-05-09T02:10:39;99709.34;;;13.57;100.00
27729;BME280;15126;42.186;24.340;2023-05-09T02:13:07;99706.91;;;13.59;100.00
27729;BME280;15126;42.186;24.340;2023-05-09T02:15:34;99704.22;;;13.56;100.00
27729;BME280;15126;42.186;24.340;2023-05-09T02:18:01;99697.91;;;13.52;100.00
27729;BME280;15126;42.186;24.340;2023-05-09T02:20:27;99705.13;;;13.37;100.00
27729;BME280;15126;42.186;24.340;2023-05-09T02:22:56;99709.66;;;13.31;100.00
27729;BME280;15126;42.186;24.340;2023-05-09T02:25:23;99705.13;;;13.37;100.00
27729;BME280;15126;42.186;24.340;2023-05-09T02:27:51;99709.84;;;13.40;100.00
27729;BME280;15126;42.186;24.340;2023-05-09T02:30:22;99707.47;;;13.38;100.00
27729;BME280;15126;42.186;24.340;2023-05-09T02:32:52;99704.75;;;13.35;100.00
27729;BME280;15126;42.186;24.340;2023-05-09T02:35:21;99728.81;;;13.32;100.00
27729;BME280;15126;42.186;24.340;2023-05-09T02:37:49;99726.16;;;13.13;100.00
27729;BME280;15126;42.186;24.340;2023-05-09T02:40:18;99725.88;;;13.07;100.00
27729;BME280;15126;42.186;24.340;2023-05-09T02:42:46;99725.34;;;13.12;100.00
27729;BME280;15126;42.186;24.340;2023-05-09T02:45:13;99731.97;;;13.18;100.00
27729;BME280;15126;42.186;24.340;2023-05-09T02:47:40;99724.09;;;13.13;100.00
27729;BME280;15126;42.186;24.340;2023-05-09T02:50:07;99730.50;;;13.13;100.00
27729;BME280;15126;42.186;24.340;2023-05-09T02:52:34;99727.16;;;13.19;100.00
27729;BME280;15126;42.186;24.340;2023-05-09T02:55:02;99729.63;;;13.17;100.00
27729;BME280;15126;42.186;24.340;2023-05-09T02:57:31;99721.03;;;13.07;100.00
27729;BME280;15126;42.186;24.340;2023-05-09T02:59:58;99730.16;;;13.11;100.00
27729;BME280;15126;42.186;24.340;2023-05-09T03:02:25;99734.09;;;13.14;100.00
27729;BME280;15126;42.186;24.340;2023-05-09T03:04:52;99743.19;;;13.18;100.00
27729;BME280;15126;42.186;24.340;2023-05-09T03:07:18;99735.75;;;13.28;100.00
27729;BME280;15126;42.186;24.340;2023-05-09T03:09:45;99740.75;;;13.20;100.00
27729;BME280;15126;42.186;24.340;2023-05-09T03:12:12;99743.81;;;13.26;100.00
27729;BME280;15126;42.186;24.340;2023-05-09T03:14:40;99741.00;;;13.26;100.00
27729;BME280;15126;42.186;24.340;2023-05-09T03:17:07;99737.09;;;13.23;100.00
27729;BME280;15126;42.186;24.340;2023-05-09T03:19:34;99741.19;;;13.19;100.00
27729;BME280;15126;42.186;24.340;2023-05-09T03:22:00;99748.44;;;13.16;100.00
27729;BME280;15126;42.186;24.340;2023-05-09T03:24:30;99761.50;;;13.23;100.00
27729;BME280;15126;42.186;24.340;2023-05-09T03:26:56;99766.38;;;13.19;100.00
27729;BME280;15126;42.186;24.340;2023-05-09T03:29:23;99760.78;;;13.19;100.00
27729;BME280;15126;42.186;24.340;2023-05-09T03:31:51;99762.38;;;13.20;100.00
27729;BME280;15126;42.186;24.340;2023-05-09T03:34:18;99761.56;;;13.19;100.00
27729;BME280;15126;42.186;24.340;2023-05-09T03:36:45;99762.38;;;13.20;100.00
27729;BME280;15126;42.186;24.340;2023-05-09T03:39:12;99760.97;;;13.11;100.00
27729;BME280;15126;42.186;24.340;2023-05-09T03:41:39;99763.31;;;13.13;100.00
27729;BME280;15126;42.186;24.340;2023-05-09T03:44:06;99764.91;;;13.14;100.00
27729;BME280;15126;42.186;24.340;2023-05-09T03:46:33;99756.84;;;13.16;100.00
27729;BME280;15126;42.186;24.340;2023-05-09T03:49:01;99758.16;;;13.11;100.00
27729;BME280;15126;42.186;24.340;2023-05-09T03:51:29;99764.81;;;13.18;100.00
27729;BME280;15126;42.186;24.340;2023-05-09T03:53:57;99758.84;;;13.16;100.00
27729;BME280;15126;42.186;24.340;2023-05-09T03:56:23;99764.81;;;13.18;100.00
27729;BME280;15126;42.186;24.340;2023-05-09T03:58:51;99759.38;;;13.10;100.00
27729;BME280;15126;42.186;24.340;2023-05-09T04:01:17;99764.63;;;13.08;100.00
27729;BME280;15126;42.186;24.340;2023-05-09T04:03:45;99772.16;;;13.11;100.00
27729;BME280;15126;42.186;24.340;2023-05-09T04:06:13;99773.88;;;13.05;100.00
27729;BME280;15126;42.186;24.340;2023-05-09T04:08:40;99763.72;;;12.95;100.00
27729;BME280;15126;42.186;24.340;2023-05-09T04:11:07;99773.34;;;12.94;100.00
27729;BME280;15126;42.186;24.340;2023-05-09T04:13:34;99775.28;;;12.97;100.00
27729;BME280;15126;42.186;24.340;2023-05-09T04:16:01;99776.22;;;12.91;100.00
27729;BME280;15126;42.186;24.340;2023-05-09T04:18:28;99781.03;;;12.90;100.00
27729;BME280;15126;42.186;24.340;2023-05-09T04:20:55;99785.41;;;12.91;100.00
27729;BME280;15126;42.186;24.340;2023-05-09T04:23:23;99779.81;;;12.91;100.00
27729;BME280;15126;42.186;24.340;2023-05-09T04:25:50;99779.09;;;12.87;100.00
27729;BME280;15126;42.186;24.340;2023-05-09T04:28:18;99777.88;;;12.88;100.00
27729;BME280;15126;42.186;24.340;2023-05-09T04:30:45;99774.38;;;12.84;100.00
27729;BME280;15126;42.186;24.340;2023-05-09T04:33:12;99785.41;;;12.91;100.00
27729;BME280;15126;42.186;24.340;2023-05-09T04:35:39;99788.78;;;12.83;100.00
27729;BME280;15126;42.186;24.340;2023-05-09T04:38:06;99788.16;;;12.75;100.00
27729;BME280;15126;42.186;24.340;2023-05-09T04:40:34;99789.69;;;12.80;100.00
27729;BME280;15126;42.186;24.340;2023-05-09T04:43:01;99788.44;;;12.81;100.00
27729;BME280;15126;42.186;24.340;2023-05-09T04:45:28;99790.09;;;12.78;100.00
27729;BME280;15126;42.186;24.340;2023-05-09T04:47:56;99796.31;;;12.86;100.00
27729;BME280;15126;42.186;24.340;2023-05-09T04:50:23;99792.38;;;12.83;100.00
27729;BME280;15126;42.186;24.340;2023-05-09T04:52:50;99791.16;;;12.84;100.00
27729;BME280;15126;42.186;24.340;2023-05-09T04:55:16;99793.72;;;12.95;100.00
27729;BME280;15126;42.186;24.340;2023-05-09T04:57:45;99796.25;;;12.89;100.00
27729;BME280;15126;42.186;24.340;2023-05-09T05:00:12;99795.72;;;12.94;100.00
27729;BME280;15126;42.186;24.340;2023-05-09T05:02:41;99791.38;;;12.93;100.00
27729;BME280;15126;42.186;24.340;2023-05-09T05:05:08;99798.19;;;12.92;100.00
27729;BME280;15126;42.186;24.340;2023-05-09T05:07:35;99796.78;;;12.84;100.00
27729;BME280;15126;42.186;24.340;2023-05-09T05:10:04;99783.28;;;12.79;100.00
27729;BME280;15126;42.186;24.340;2023-05-09T05:12:31;99791.78;;;12.92;100.00
27729;BME280;15126;42.186;24.340;2023-05-09T05:14:59;99799.31;;;12.95;100.00
27729;BME280;15126;42.186;24.340;2023-05-09T05:17:29;99802.75;;;13.02;100.00
27729;BME280;15126;42.186;24.340;2023-05-09T05:19:56;99798.69;;;13.07;100.00
27729;BME280;15126;42.186;24.340;2023-05-09T05:22:23;99789.31;;;13.13;100.00
27729;BME280;15126;42.186;24.340;2023-05-09T05:24:49;99801.22;;;13.18;100.00
27729;BME280;15126;42.186;24.340;2023-05-09T05:27:16;99795.00;;;13.10;100.00
27729;BME280;15126;42.186;24.340;2023-05-09T05:29:43;99795.88;;;13.07;100.00
27729;BME280;15126;42.186;24.340;2023-05-09T05:32:11;99797.78;;;13.10;100.00
27729;BME280;15126;42.186;24.340;2023-05-09T05:34:38;99800.50;;;13.13;100.00
27729;BME280;15126;42.186;24.340;2023-05-09T05:37:05;99792.00;;;13.01;100.00
27729;BME280;15126;42.186;24.340;2023-05-09T05:39:33;99799.44;;;13.07;100.00
27729;BME280;15126;42.186;24.340;2023-05-09T05:41:59;99799.88;;;13.06;100.00
27729;BME280;15126;42.186;24.340;2023-05-09T05:44:26;99802.75;;;13.02;100.00
27729;BME280;15126;42.186;24.340;2023-05-09T05:46:53;99802.06;;;12.98;100.00
27729;BME280;15126;42.186;24.340;2023-05-09T05:49:21;99802.06;;;12.98;100.00
27729;BME280;15126;42.186;24.340;2023-05-09T05:51:49;99798.69;;;13.07;100.00
27729;BME280;15126;42.186;24.340;2023-05-09T05:54:16;99809.78;;;13.10;100.00
27729;BME280;15126;42.186;24.340;2023-05-09T05:56:43;99808.03;;;13.17;100.00
27729;BME280;15126;42.186;24.340;2023-05-09T05:59:09;99799.59;;;13.00;100.00
27729;BME280;15126;42.186;24.340;2023-05-09T06:01:36;99802.56;;;12.93;100.00
27729;BME280;15126;42.186;24.340;2023-05-09T06:04:03;99807.19;;;13.00;100.00
27729;BME280;15126;42.186;24.340;2023-05-09T06:06:32;99813.94;;;13.02;100.00
27729;BME280;15126;42.186;24.340;2023-05-09T06:08:58;99812.28;;;13.05;100.00
27729;BME280;15126;42.186;24.340;2023-05-09T06:11:25;99807.13;;;13.03;100.00
27729;BME280;15126;42.186;24.340;2023-05-09T06:13:52;99810.78;;;13.00;100.00
27729;BME280;15126;42.186;24.340;2023-05-09T06:16:19;99816.41;;;13.00;100.00
27729;BME280;15126;42.186;24.340;2023-05-09T06:18:46;99818.41;;;13.00;100.00
27729;BME280;15126;42.186;24.340;2023-05-09T06:21:13;99813.50;;;12.88;100.00
27729;BME280;15126;42.186;24.340;2023-05-09T06:23:41;99817.25;;;12.97;100.00
27729;BME280;15126;42.186;24.340;2023-05-09T06:26:08;99817.34;;;12.94;100.00
27729;BME280;15126;42.186;24.340;2023-05-09T06:28:35;99817.50;;;12.87;100.00
27729;BME280;15126;42.186;24.340;2023-05-09T06:31:02;99822.88;;;12.97;100.00
27729;BME280;15126;42.186;24.340;2023-05-09T06:33:29;99816.47;;;12.97;100.00
27729;BME280;15126;42.186;24.340;2023-05-09T06:35:55;99819.53;;;13.02;100.00
27729;BME280;15126;42.186;24.340;2023-05-09T06:38:24;99821.94;;;13.04;100.00
27729;BME280;15126;42.186;24.340;2023-05-09T06:40:52;99819.53;;;13.02;100.00
27729;BME280;15126;42.186;24.340;2023-05-09T06:43:19;99811.16;;;13.02;100.00
27729;BME280;15126;42.186;24.340;2023-05-09T06:45:50;99822.34;;;13.02;100.00
27729;BME280;15126;42.186;24.340;2023-05-09T06:48:18;99823.59;;;13.01;100.00
27729;BME280;15126;42.186;24.340;2023-05-09T06:50:45;99827.78;;;12.93;100.00
27729;BME280;15126;42.186;24.340;2023-05-09T06:53:13;99833.38;;;12.93;100.00
27729;BME280;15126;42.186;24.340;2023-05-09T06:55:40;99833.38;;;12.93;100.00
27729;BME280;15126;42.186;24.340;2023-05-09T06:58:09;99825.38;;;12.92;100.00
27729;BME280;15126;42.186;24.340;2023-05-09T07:00:36;99833.38;;;12.93;100.00
27729;BME280;15126;42.186;24.340;2023-05-09T07:03:03;99826.00;;;12.99;100.00
27729;BME280;15126;42.186;24.340;2023-05-09T07:05:31;99828.03;;;12.99;100.00
27729;BME280;15126;42.186;24.340;2023-05-09T07:07:58;99836.16;;;12.93;100.00
27729;BME280;15126;42.186;24.340;2023-05-09T07:10:25;99833.88;;;13.04;100.00
27729;BME280;15126;42.186;24.340;2023-05-09T07:12:52;99832.69;;;13.05;100.00
27729;BME280;15126;42.186;24.340;2023-05-09T07:15:20;99832.63;;;13.09;100.00
27729;BME280;15126;42.186;24.340;2023-05-09T07:17:47;99822.44;;;12.99;100.00
27729;BME280;15126;42.186;24.340;2023-05-09T07:20:14;99822.78;;;13.01;100.00
27729;BME280;15126;42.186;24.340;2023-05-09T07:22:41;99829.66;;;13.16;100.00
27729;BME280;15126;42.186;24.340;2023-05-09T07:25:08;99815.84;;;13.09;100.00
27729;BME280;15126;42.186;24.340;2023-05-09T07:27:35;99827.72;;;13.13;100.00
27729;BME280;15126;42.186;24.340;2023-05-09T07:30:06;99829.59;;;13.20;100.00
27729;BME280;15126;42.186;24.340;2023-05-09T07:32:35;99837.81;;;13.27;100.00
27729;BME280;15126;42.186;24.340;2023-05-09T07:35:05;99822.56;;;13.11;100.00
27729;BME280;15126;42.186;24.340;2023-05-09T07:37:32;99823.00;;;13.10;100.00
27729;BME280;15126;42.186;24.340;2023-05-09T07:39:59;99840.25;;;13.25;100.00
27729;BME280;15126;42.186;24.340;2023-05-09T07:42:25;99848.47;;;13.16;100.00
27729;BME280;15126;42.186;24.340;2023-05-09T07:44:52;99839.31;;;13.15;100.00
27729;BME280;15126;42.186;24.340;2023-05-09T07:47:19;99839.19;;;13.19;100.00
27729;BME280;15126;42.186;24.340;2023-05-09T07:49:47;99834.66;;;13.08;100.00
27729;BME280;15126;42.186;24.340;2023-05-09T07:52:14;99839.72;;;13.13;100.00
27729;BME280;15126;42.186;24.340;2023-05-09T07:54:42;99836.13;;;13.13;100.00
27729;BME280;15126;42.186;24.340;2023-05-09T07:57:09;99839.06;;;13.26;100.00
27729;BME280;15126;42.186;24.340;2023-05-09T07:59:36;99844.56;;;13.29;100.00
27729;BME280;15126;42.186;24.340;2023-05-09T08:02:03;99849.38;;;13.29;100.00
27729;BME280;15126;42.186;24.340;2023-05-09T08:04:30;99839.59;;;13.37;100.00
27729;BME280;15126;42.186;24.340;2023-05-09T08:06:58;99845.00;;;13.44;100.00
27729;BME280;15126;42.186;24.340;2023-05-09T08:09:28;99844.81;;;13.35;100.00
27729;BME280;15126;42.186;24.340;2023-05-09T08:11:55;99839.94;;;13.39;100.00
27729;BME280;15126;42.186;24.340;2023-05-09T08:14:22;99831.78;;;13.28;100.00
27729;BME280;15126;42.186;24.340;2023-05-09T08:16:48;99845.78;;;13.28;99.88
27729;BME280;15126;42.186;24.340;2023-05-09T08:19:15;99850.34;;;13.38;100.00
27729;BME280;15126;42.186;24.340;2023-05-09T08:21:42;99847.63;;;13.35;99.96
27729;BME280;15126;42.186;24.340;2023-05-09T08:24:10;99837.56;;;13.37;100.00
27729;BME280;15126;42.186;24.340;2023-05-09T08:26:37;99838.00;;;13.52;100.00
27729;BME280;15126;42.186;24.340;2023-05-09T08:29:04;99840.13;;;13.48;100.00
27729;BME280;15126;42.186;24.340;2023-05-09T08:31:31;99843.09;;;13.41;99.73
27729;BME280;15126;42.186;24.340;2023-05-09T08:33:58;99845.00;;;13.44;100.00
27729;BME280;15126;42.186;24.340;2023-05-09T08:36:25;99842.00;;;13.35;100.00
27729;BME280;15126;42.186;24.340;2023-05-09T08:38:52;99839.41;;;13.44;100.00
27729;BME280;15126;42.186;24.340;2023-05-09T08:41:24;99838.88;;;13.33;98.33
27729;BME280;15126;42.186;24.340;2023-05-09T08:43:52;99830.13;;;13.31;99.96
27729;BME280;15126;42.186;24.340;2023-05-09T08:46:24;99830.09;;;13.15;100.00
27729;BME280;15126;42.186;24.340;2023-05-09T08:48:53;99833.44;;;13.26;100.00
27729;BME280;15126;42.186;24.340;2023-05-09T08:51:21;99833.53;;;13.22;100.00
27729;BME280;15126;42.186;24.340;2023-05-09T08:53:49;99831.06;;;13.24;100.00
27729;BME280;15126;42.186;24.340;2023-05-09T08:56:16;99832.94;;;13.31;100.00
27729;BME280;15126;42.186;24.340;2023-05-09T08:58:45;99836.06;;;13.33;100.00
27729;BME280;15126;42.186;24.340;2023-05-09T09:01:13;99820.13;;;13.13;100.00
27729;BME280;15126;42.186;24.340;2023-05-09T09:03:40;99827.91;;;13.22;100.00
27729;BME280;15126;42.186;24.340;2023-05-09T09:06:12;99829.59;;;13.20;100.00
27729;BME280;15126;42.186;24.340;2023-05-09T09:08:40;99830.28;;;13.24;100.00
27729;BME280;15126;42.186;24.340;2023-05-09T09:11:10;99818.03;;;13.18;100.00
27729;BME280;15126;42.186;24.340;2023-05-09T09:13:39;99817.09;;;13.04;100.00
27729;BME280;15126;42.186;24.340;2023-05-09T09:16:08;99823.19;;;13.19;100.00
27729;BME280;15126;42.186;24.340;2023-05-09T09:18:36;99814.84;;;13.16;100.00
27729;BME280;15126;42.186;24.340;2023-05-09T09:21:06;99828.38;;;13.21;100.00
27729;BME280;15126;42.186;24.340;2023-05-09T09:23:36;99823.03;;;13.26;100.00
27729;BME280;15126;42.186;24.340;2023-05-09T09:26:04;99826.78;;;13.36;100.00
27729;BME280;15126;42.186;24.340;2023-05-09T09:28:33;99827.84;;;13.42;100.00
27729;BME280;15126;42.186;24.340;2023-05-09T09:31:01;99826.88;;;13.48;100.00
27729;BME280;15126;42.186;24.340;2023-05-09T09:33:29;99836.69;;;13.40;99.95
27729;BME280;15126;42.186;24.340;2023-05-09T09:35:56;99830.66;;;13.42;100.00
27729;BME280;15126;42.186;24.340;2023-05-09T09:38:24;99821.78;;;13.27;99.60
27729;BME280;15126;42.186;24.340;2023-05-09T09:40:55;99829.94;;;13.38;99.56
27729;BME280;15126;42.186;24.340;2023-05-09T09:43:28;99823.47;;;13.41;100.00
27729;BME280;15126;42.186;24.340;2023-05-09T09:45:55;99828.13;;;13.31;98.59
27729;BME280;15126;42.186;24.340;2023-05-09T09:48:23;99821.09;;;13.23;98.39
27729;BME280;15126;42.186;24.340;2023-05-09T09:50:53;99830.19;;;13.27;98.22
27729;BME280;15126;42.186;24.340;2023-05-09T09:53:21;99821.53;;;13.22;100.00
27729;BME280;15126;42.186;24.340;2023-05-09T09:55:49;99816.78;;;13.19;99.31
27729;BME280;15126;42.186;24.340;2023-05-09T09:58:17;99832.59;;;13.29;99.29
27729;BME280;15126;42.186;24.340;2023-05-09T10:00:46;99830.31;;;13.40;99.08
27729;BME280;15126;42.186;24.340;2023-05-09T10:03:14;99817.69;;;13.32;100.00
27729;BME280;15126;42.186;24.340;2023-05-09T10:05:42;99820.47;;;13.32;100.00
27729;BME280;15126;42.186;24.340;2023-05-09T10:08:10;99838.47;;;13.50;100.00
27729;BME280;15126;42.186;24.340;2023-05-09T10:10:37;99823.81;;;13.43;99.29
27729;BME280;15126;42.186;24.340;2023-05-09T10:13:07;99821.47;;;13.57;100.00
27729;BME280;15126;42.186;24.340;2023-05-09T10:15:36;99821.81;;;13.59;99.39
27729;BME280;15126;42.186;24.340;2023-05-09T10:18:03;99827.13;;;13.54;98.28
27729;BME280;15126;42.186;24.340;2023-05-09T10:20:33;99820.84;;;13.50;98.91
27729;BME280;15126;42.186;24.340;2023-05-09T10:23:01;99802.63;;;13.42;100.00
27729;BME280;15126;42.186;24.340;2023-05-09T10:25:35;99810.84;;;13.33;99.55
27729;BME280;15126;42.186;24.340;2023-05-09T10:28:07;99832.75;;;13.38;99.12
27729;BME280;15126;42.186;24.340;2023-05-09T10:30:42;99818.72;;;13.38;99.54
27729;BME280;15126;42.186;24.340;2023-05-09T10:33:14;99819.97;;;13.37;99.57
27729;BME280;15126;42.186;24.340;2023-05-09T10:35:44;99829.78;;;13.45;100.00
27729;BME280;15126;42.186;24.340;2023-05-09T10:38:12;99826.78;;;13.52;99.23
27729;BME280;15126;42.186;24.340;2023-05-09T10:40:44;99827.84;;;13.58;97.84
27729;BME280;15126;42.186;24.340;2023-05-09T10:43:12;99818.03;;;13.66;99.25
27729;BME280;15126;42.186;24.340;2023-05-09T10:45:39;99818.63;;;13.73;98.94
27729;BME280;15126;42.186;24.340;2023-05-09T10:48:07;99823.63;;;13.82;98.68
27729;BME280;15126;42.186;24.340;2023-05-09T10:50:36;99824.31;;;13.70;97.47
27729;BME280;15126;42.186;24.340;2023-05-09T10:53:09;99813.50;;;13.56;98.34
27729;BME280;15126;42.186;24.340;2023-05-09T10:55:51;99828.72;;;13.71;97.81
27729;BME280;15126;42.186;24.340;2023-05-09T10:58:24;99824.69;;;13.72;97.03
27729;BME280;15126;42.186;24.340;2023-05-09T11:00:53;99829.88;;;13.57;99.25
27729;BME280;15126;42.186;24.340;2023-05-09T11:03:20;99826.09;;;13.64;99.06
27729;BME280;15126;42.186;24.340;2023-05-09T11:05:50;99826.25;;;13.73;97.44
27729;BME280;15126;42.186;24.340;2023-05-09T11:08:18;99819.25;;;13.65;97.04
27729;BME280;15126;42.186;24.340;2023-05-09T11:10:46;99822.56;;;13.76;96.66
27729;BME280;15126;42.186;24.340;2023-05-09T11:13:17;99819.59;;;13.83;95.86
27729;BME280;15126;42.186;24.340;2023-05-09T11:16:02;99821.97;;;13.68;96.81
27729;BME280;15126;42.186;24.340;2023-05-09T11:18:30;99823.19;;;13.84;96.46
27729;BME280;15126;42.186;24.340;2023-05-09T11:20:58;99830.44;;;13.97;94.25
27729;BME280;15126;42.186;24.340;2023-05-09T11:23:32;99810.16;;;13.77;94.56
27729;BME280;15126;42.186;24.340;2023-05-09T11:26:04;99827.38;;;13.92;93.82
27729;BME280;15126;42.186;24.340;2023-05-09T11:28:34;99826.84;;;13.97;94.60
27729;BME280;15126;42.186;24.340;2023-05-09T11:31:09;99798.25;;;13.57;94.21
27729;BME280;15126;42.186;24.340;2023-05-09T11:33:37;99797.91;;;13.39;94.60
27729;BME280;15126;42.186;24.340;2023-05-09T11:36:14;99836.06;;;13.65;94.99
27729;BME280;15126;42.186;24.340;2023-05-09T11:38:43;99831.34;;;13.62;95.91
27729;BME280;15126;42.186;24.340;2023-05-09T11:41:10;99824.72;;;13.56;96.25
27729;BME280;15126;42.186;24.340;2023-05-09T11:43:39;99837.75;;;13.62;95.28
27729;BME280;15126;42.186;24.340;2023-05-09T11:46:07;99826.13;;;13.48;94.99
27729;BME280;15126;42.186;24.340;2023-05-09T11:48:37;99819.78;;;13.60;95.52
27729;BME280;15126;42.186;24.340;2023-05-09T11:51:05;99809.66;;;13.50;93.84
27729;BME280;15126;42.186;24.340;2023-05-09T11:53:32;99813.75;;;13.61;95.73
27729;BME280;15126;42.186;24.340;2023-05-09T11:56:01;99823.31;;;13.64;94.35
27729;BME280;15126;42.186;24.340;2023-05-09T11:58:28;99817.16;;;13.69;94.10
27729;BME280;15126;42.186;24.340;2023-05-09T12:00:57;99813.81;;;13.74;93.76
27729;BME280;15126;42.186;24.340;2023-05-09T12:03:24;99817.16;;;13.69;92.21
27729;BME280;15126;42.186;24.340;2023-05-09T12:05:53;99814.09;;;13.63;92.42
27729;BME280;15126;42.186;24.340;2023-05-09T12:08:20;99815.03;;;13.73;92.48
27729;BME280;15126;42.186;24.340;2023-05-09T12:10:48;99789.31;;;13.62;92.26
27729;BME280;15126;42.186;24.340;2023-05-09T12:13:16;99818.81;;;13.83;91.78
27729;BME280;15126;42.186;24.340;2023-05-09T12:15:43;99817.28;;;13.94;92.16
27729;BME280;15126;42.186;24.340;2023-05-09T12:18:12;99814.69;;;13.87;92.44
27729;BME280;15126;42.186;24.340;2023-05-09T12:20:42;99803.13;;;13.85;91.20
27729;BME280;15126;42.186;24.340;2023-05-09T12:23:10;99810.28;;;13.86;91.31
27729;BME280;15126;42.186;24.340;2023-05-09T12:25:38;99807.69;;;13.79;92.77
27729;BME280;15126;42.186;24.340;2023-05-09T12:28:05;99814.13;;;13.92;91.92
27729;BME280;15126;42.186;24.340;2023-05-09T12:30:32;99803.91;;;13.86;92.09
27729;BME280;15126;42.186;24.340;2023-05-09T12:32:59;99806.09;;;13.78;91.35
27729;BME280;15126;42.186;24.340;2023-05-09T12:35:28;99803.50;;;13.71;92.07
27729;BME280;15126;42.186;24.340;2023-05-09T12:37:56;99789.94;;;13.69;92.32
27729;BME280;15126;42.186;24.340;2023-05-09T12:40:24;99795.97;;;13.68;92.69
27729;BME280;15126;42.186;24.340;2023-05-09T12:42:51;99794.75;;;13.69;91.61
27729;BME280;15126;42.186;24.340;2023-05-09T12:45:24;99789.13;;;13.69;92.21
27729;BME280;15126;42.186;24.340;2023-05-09T12:47:51;99790.19;;;13.75;91.39